»·PEaware :: N751LU KSJC-KPDX

N751LU :: KSJC-KPDX

FLIGHT INFORMATION

Flight Status: Arrived
Operator: Privately registered:
United States
More flights under this callsign
Pilot: Ewen S. (18928)
Aircraft: CESSNA 550 CITATION 2/S2/BRAVO
(C550)
More flights by this aircraft type
Origin: KSJC Mineta San Jose Intl
United States
Destination: KPDX Portland Intl
United States
More flights between these airports :: More routes between these airports
Route: +TECKY3 TECKY SJC BMRNG HRNER MACHU TMBRS2
File this flight plan on PilotEdge
Remarks:
Altitude:
(Current/Filed)
40,000ft
Speed:
(Current/Filed)
385kts
Departed: 22-Jul-20 02:47 PM
Arrived: 22-Jul-20 04:40 PM
Distance/Time
Traveled:
494nm/1:53
Distance/Time
To Go:
Arrived

Flight Plot

Page will automatically refresh every two minutes.


Map Options




Map Legend


Flown Route
Filed Route
Departure Airport
Arrival Airport
Navaid (VOR, NDB)
Fix

Horizontal Profiles

Position Reports

Time Latitude Longitude Heading Altitude Ground
Speed
22-Jul-20 14:21 37.358596 -121.931215 334 56ft 0kts
22-Jul-20 14:22 37.358596 -121.931215 334 56ft 0kts
22-Jul-20 14:30 37.358596 -121.931215 334 56ft 0kts
22-Jul-20 14:31 37.358596 -121.931215 334 56ft 0kts
22-Jul-20 14:32 37.358596 -121.931215 334 56ft 0kts
22-Jul-20 14:33 37.358596 -121.931215 334 56ft 0kts
22-Jul-20 14:34 37.358596 -121.931215 334 56ft 0kts
22-Jul-20 14:35 37.358596 -121.931215 334 56ft 0kts
22-Jul-20 14:36 37.358596 -121.931215 334 56ft 0kts
22-Jul-20 14:37 37.358596 -121.931215 334 56ft 0kts
22-Jul-20 14:38 37.358596 -121.931215 334 56ft 0kts
22-Jul-20 14:39 37.358596 -121.931215 334 56ft 0kts
22-Jul-20 14:40 37.358596 -121.931215 334 56ft 0kts
22-Jul-20 14:41 37.358745 -121.931114 51 55ft 0kts
22-Jul-20 14:42 37.358001 -121.929159 139 55ft 16kts
22-Jul-20 14:43 37.356405 -121.926274 47 57ft 10kts
22-Jul-20 14:44 37.355366 -121.923833 138 59ft 18kts
22-Jul-20 14:45 37.352095 -121.920122 109 61ft 6kts
22-Jul-20 14:46 37.358192 -121.924981 317 79ft 106kts
22-Jul-20 14:47 37.383003 -121.956904 309 1348ft 167kts
22-Jul-20 14:48 37.417766 -121.966076 51 4150ft 161kts
22-Jul-20 14:49 37.399905 -121.905888 129 4999ft 209kts
22-Jul-20 14:50 37.365501 -121.850270 129 6434ft 193kts
22-Jul-20 14:51 37.332777 -121.796021 128 8454ft 197kts
22-Jul-20 14:52 37.296525 -121.804668 275 10443ft 208kts
22-Jul-20 14:53 37.322026 -121.870012 312 12358ft 217kts
22-Jul-20 14:54 37.362724 -121.926994 309 14091ft 224kts
22-Jul-20 14:55 37.418555 -121.951065 0 15857ft 233kts
22-Jul-20 14:56 37.484002 -121.953994 357 17692ft 240kts
22-Jul-20 14:57 37.551459 -121.959755 356 19383ft 247kts
22-Jul-20 14:58 37.620847 -121.965838 356 20946ft 253kts
22-Jul-20 14:59 37.690544 -121.971697 357 22724ft 251kts
22-Jul-20 15:00 37.761298 -121.977888 357 24244ft 258kts
22-Jul-20 15:01 37.832739 -121.984035 356 25650ft 263kts
22-Jul-20 15:02 37.906224 -121.990277 356 26957ft 267kts
22-Jul-20 15:03 37.981296 -121.996659 356 28156ft 271kts
22-Jul-20 15:04 38.057300 -122.003226 356 29241ft 276kts
22-Jul-20 15:05 38.133028 -122.009794 356 30244ft 279kts
22-Jul-20 15:06 38.210162 -122.016508 355 31163ft 283kts
22-Jul-20 15:08 38.288083 -122.023297 355 32012ft 286kts
22-Jul-20 15:09 38.367295 -122.032129 353 33048ft 291kts
22-Jul-20 15:10 38.447989 -122.045909 350 34234ft 295kts
22-Jul-20 15:11 38.530128 -122.060660 350 35280ft 300kts
22-Jul-20 15:12 38.613549 -122.074540 351 36224ft 305kts
22-Jul-20 15:13 38.698036 -122.088487 351 37192ft 305kts
22-Jul-20 15:14 38.782118 -122.102426 351 38009ft 308kts
22-Jul-20 15:15 38.867606 -122.116565 351 38701ft 312kts
22-Jul-20 15:16 38.954377 -122.130976 351 39304ft 316kts
22-Jul-20 15:17 39.042188 -122.145592 351 39828ft 320kts
22-Jul-20 15:18 39.132650 -122.160630 351 39873ft 337kts
22-Jul-20 15:19 39.224344 -122.175956 351 39871ft 332kts
22-Jul-20 15:20 39.314320 -122.191089 351 39871ft 328kts
22-Jul-20 15:21 39.404414 -122.206253 351 39871ft 325kts
22-Jul-20 15:22 39.493972 -122.221356 351 39871ft 323kts
22-Jul-20 15:23 39.582997 -122.236413 351 39862ft 321kts
22-Jul-20 15:24 39.671445 -122.251431 351 39847ft 322kts
22-Jul-20 15:24 39.745315 -122.263987 351 39844ft 322kts
22-Jul-20 15:25 39.834006 -122.279099 352 39844ft 322kts
22-Jul-20 15:27 39.937408 -122.296756 352 39844ft 322kts
22-Jul-20 15:27 40.011032 -122.309364 352 39844ft 322kts
22-Jul-20 15:28 40.099757 -122.324595 352 39843ft 322kts
22-Jul-20 15:29 40.188054 -122.339788 352 39844ft 322kts
22-Jul-20 15:30 40.276409 -122.355034 352 39844ft 322kts
22-Jul-20 15:31 40.364520 -122.370275 352 39844ft 322kts
22-Jul-20 15:32 40.442461 -122.383798 352 39844ft 322kts
22-Jul-20 15:33 40.532093 -122.399388 352 39844ft 322kts
22-Jul-20 15:34 40.618433 -122.414437 352 39844ft 322kts
22-Jul-20 15:35 40.707014 -122.429929 352 39868ft 321kts
22-Jul-20 15:36 40.793816 -122.445152 352 39908ft 320kts
22-Jul-20 15:37 40.875504 -122.459499 352 39907ft 320kts
22-Jul-20 15:38 40.963016 -122.474921 352 39907ft 320kts
22-Jul-20 15:39 41.051319 -122.490523 352 39907ft 320kts
22-Jul-20 15:40 41.138155 -122.505905 352 39908ft 320kts
22-Jul-20 15:41 41.224705 -122.521270 352 39908ft 320kts
22-Jul-20 15:42 41.310555 -122.536558 352 39904ft 321kts
22-Jul-20 15:43 41.395569 -122.551763 352 39884ft 321kts
22-Jul-20 15:44 41.481895 -122.567258 352 39871ft 322kts
22-Jul-20 15:45 41.570423 -122.579196 358 39872ft 322kts
22-Jul-20 15:46 41.659287 -122.583921 357 39871ft 322kts
22-Jul-20 15:47 41.747649 -122.589604 357 39871ft 322kts
22-Jul-20 15:48 41.836177 -122.595391 357 39871ft 322kts
22-Jul-20 15:49 41.926097 -122.601281 357 39873ft 329kts
22-Jul-20 15:50 42.017603 -122.607223 357 39858ft 346kts
22-Jul-20 15:51 42.113950 -122.613547 357 39845ft 359kts
22-Jul-20 15:52 42.212618 -122.620011 357 39844ft 367kts
22-Jul-20 15:53 42.309680 -122.626479 357 39844ft 373kts
22-Jul-20 15:54 42.410478 -122.633219 357 39844ft 377kts
22-Jul-20 15:55 42.515880 -122.640288 357 39843ft 379kts
22-Jul-20 15:56 42.621436 -122.647413 357 39856ft 380kts
22-Jul-20 15:57 42.724977 -122.654406 356 39887ft 381kts
22-Jul-20 15:58 42.826244 -122.661269 356 39890ft 382kts
22-Jul-20 15:59 42.932776 -122.668511 356 39890ft 383kts
22-Jul-20 16:00 43.037481 -122.675647 356 39890ft 383kts
22-Jul-20 16:01 43.138633 -122.682576 355 39909ft 384kts
22-Jul-20 16:02 43.245367 -122.689884 356 38362ft 372kts
22-Jul-20 16:03 43.345387 -122.696833 356 36661ft 354kts
22-Jul-20 16:04 43.440563 -122.703394 356 34979ft 343kts
22-Jul-20 16:05 43.535475 -122.709922 356 33263ft 337kts
22-Jul-20 16:06 43.629179 -122.716376 356 31556ft 341kts
22-Jul-20 16:07 43.725651 -122.722993 355 29861ft 353kts
22-Jul-20 16:08 43.824413 -122.729820 355 28174ft 360kts
22-Jul-20 16:09 43.925315 -122.736834 355 26469ft 362kts
22-Jul-20 16:10 44.026181 -122.743867 355 24778ft 373kts
22-Jul-20 16:11 44.132685 -122.751086 356 23935ft 376kts
22-Jul-20 16:12 44.232402 -122.744341 2 23175ft 340kts
22-Jul-20 16:13 44.320031 -122.735978 2 21426ft 305kts
22-Jul-20 16:14 44.405280 -122.727403 2 19339ft 355kts
22-Jul-20 16:15 44.509440 -122.716575 2 17223ft 373kts
22-Jul-20 16:16 44.610048 -122.706847 1 15159ft 344kts
22-Jul-20 16:17 44.708150 -122.696907 1 13713ft 348kts
22-Jul-20 16:18 44.802318 -122.687428 1 12439ft 343kts
22-Jul-20 16:19 44.895339 -122.678170 1 11128ft 317kts
22-Jul-20 16:20 44.981184 -122.669641 1 10988ft 305kts
22-Jul-20 16:21 45.066211 -122.660893 1 10289ft 297kts
22-Jul-20 16:22 45.145032 -122.653028 1 9067ft 262kts
22-Jul-20 16:23 45.213658 -122.646321 358 7873ft 239kts
22-Jul-20 16:24 45.268060 -122.687793 325 6675ft 221kts
22-Jul-20 16:25 45.317973 -122.734870 325 5488ft 216kts
22-Jul-20 16:26 45.364996 -122.779685 325 5051ft 184kts
22-Jul-20 16:27 45.410129 -122.822263 325 5055ft 199kts
22-Jul-20 16:28 45.457285 -122.866781 325 5055ft 204kts
22-Jul-20 16:29 45.504165 -122.911167 325 5052ft 196kts
22-Jul-20 16:30 45.552876 -122.925795 352 5142ft 156kts
22-Jul-20 16:31 45.598454 -122.921821 3 4610ft 180kts
22-Jul-20 16:32 45.645943 -122.893276 50 4019ft 200kts
22-Jul-20 16:33 45.666108 -122.824083 80 3281ft 167kts
22-Jul-20 16:34 45.656249 -122.771144 135 2271ft 149kts
22-Jul-20 16:35 45.634196 -122.727091 117 1617ft 136kts
22-Jul-20 16:36 45.617565 -122.678210 118 904ft 132kts
22-Jul-20 16:37 45.601106 -122.636765 119 331ft 107kts
22-Jul-20 16:38 45.589128 -122.605980 118 34ft 54kts
22-Jul-20 16:39 45.586064 -122.601133 178 34ft 0kts
22-Jul-20 16:40 45.584108 -122.596349 119 34ft 29kts

Navigation Log

Ident Type
Flight plan parsing failed, navigation log unavailable